Weather History for K04W - November, 2013

Change the Weather History Date:

Saturday, November 16, 2013

  Actual Average (KJMR) Record (KJMR)
Temperature  
Mean Temperature 42 °F -  
Max Temperature 44 °F 40 °F 67 °F (1953)
Min Temperature 39 °F 18 °F -6 °F (1933)
Degree Days  
Heating Degree Days 24    
Moisture  
Dew Point 40 °F    
Average Humidity 91    
Maximum Humidity 100    
Minimum Humidity 76    
Precipitation  
Precipitation 0.06 in - - ()
Sea Level Pressure  
Sea Level Pressure 29.42 in    
Wind  
Wind Speed 8 mph (SE)    
Max Wind Speed 14 mph    
Max Gust Speed 22 mph    
Visibility 6 miles    
Events Fog , Rain , Thunderstorm    
Averages and records for this station are not official NWS values.
T = Trace of Precipitation, MM = Missing Value Source: NWS Daily Summary

Daily Weather History Graph

Daily Weather History Graph

Search for Another Location

Airport or City:

Trip Planner

Search our weather history database for the weather conditions in past years. The results will help you decide how hot, cold, wet, or windy it might be!

Date:

Astronomy

Nov. 16, 2013 Rise Set
Actual Time 7:13 AM CST 4:38 PM CST
Civil Twilight 6:41 AM CST 5:11 PM CST
Nautical Twilight 6:04 AM CST 5:47 PM CST
Astronomical Twilight 5:29 AM CST 6:22 PM CST
Moon 4:16 PM CST (11/16) 6:07 AM CST (11/16)
Length of Visible Light 10h 29m
Length of Day
9h 24m
Waxing Gibbous, 99% of the Moon is Illuminated
Nov 16
Waxing Gibbous
Nov 17
Full
Nov 25
Last Quarter
Dec 2
New
Dec 9
First Quarter

Hourly Weather History & Observations

Time (CST) Temp. Windchill Dew Point Humidity Pressure Visibility Wind Dir Wind Speed Gust Speed Precip Events Conditions
12:00 AM 42.8 °F 38.6 °F 35.6 °F 76% 29.62 in 10.0 mi SSE 6.9 mph - N/A   Clear
12:20 AM 42.8 °F 38.6 °F 35.6 °F 76% 29.61 in 10.0 mi SSE 6.9 mph - N/A   Clear
12:40 AM 42.8 °F 38.0 °F 35.6 °F 76% 29.61 in 10.0 mi SSE 8.1 mph - N/A   Clear
1:00 AM 42.8 °F 37.0 °F 35.6 °F 76% 29.61 in 10.0 mi SSE 10.4 mph - N/A   Clear
1:20 AM 42.8 °F 38.0 °F 35.6 °F 76% 29.60 in 10.0 mi SSE 8.1 mph - N/A   Clear
1:40 AM 42.8 °F 38.6 °F 35.6 °F 76% 29.59 in 10.0 mi SSE 6.9 mph - N/A   Clear
2:00 AM 41.0 °F 36.4 °F 33.8 °F 76% 29.59 in 10.0 mi SSE 6.9 mph - N/A   Clear
2:20 AM 41.0 °F 34.7 °F 33.8 °F 76% 29.59 in 10.0 mi SSE 10.4 mph - N/A   Clear
2:40 AM 41.0 °F 34.3 °F 33.8 °F 76% 29.58 in 10.0 mi SSE 11.5 mph 16.1 mph N/A   Clear
3:00 AM 41.0 °F 34.7 °F 33.8 °F 76% 29.57 in 10.0 mi SSE 10.4 mph - N/A   Clear
3:20 AM 41.0 °F 34.7 °F 33.8 °F 76% 29.56 in 10.0 mi SSE 10.4 mph 17.3 mph N/A   Clear
3:39 AM 41.0 °F 34.3 °F 33.8 °F 76% 29.56 in 10.0 mi SSE 11.5 mph - N/A   Clear
4:00 AM 41.0 °F 34.7 °F 35.6 °F 81% 29.55 in 10.0 mi SSE 10.4 mph 17.3 mph N/A   Scattered Clouds
4:20 AM 41.0 °F 33.9 °F 35.6 °F 81% 29.54 in 10.0 mi South 12.7 mph - N/A   Scattered Clouds
4:40 AM 41.0 °F 35.2 °F 35.6 °F 81% 29.54 in 10.0 mi South 9.2 mph - N/A   Clear
5:00 AM 41.0 °F 35.8 °F 35.6 °F 81% 29.54 in 10.0 mi South 8.1 mph - N/A   Clear
5:20 AM 41.0 °F 36.4 °F 35.6 °F 81% 29.52 in 10.0 mi South 6.9 mph - N/A   Clear
5:40 AM 39.2 °F 34.2 °F 35.6 °F 87% 29.52 in 10.0 mi South 6.9 mph - N/A   Clear
6:00 AM 41.0 °F 35.8 °F 35.6 °F 81% 29.51 in 10.0 mi SSE 8.1 mph - N/A   Clear
6:20 AM 41.0 °F 35.8 °F 37.4 °F 87% 29.51 in 10.0 mi South 8.1 mph - N/A   Scattered Clouds
6:40 AM 42.8 °F 37.5 °F 37.4 °F 81% 29.50 in 10.0 mi SSE 9.2 mph - N/A   Overcast
7:00 AM 41.0 °F 34.7 °F 37.4 °F 87% 29.50 in 10.0 mi SSE 10.4 mph - N/A   Overcast
7:21 AM 41.0 °F 34.7 °F 37.4 °F 87% 29.49 in 10.0 mi South 10.4 mph 16.1 mph N/A   Overcast
7:40 AM 41.0 °F 34.3 °F 37.4 °F 87% 29.49 in 10.0 mi South 11.5 mph - N/A   Mostly Cloudy
8:00 AM 42.8 °F 37.5 °F 39.2 °F 87% 29.49 in 10.0 mi SSE 9.2 mph - N/A   Overcast
8:21 AM 42.8 °F 37.0 °F 39.2 °F 87% 29.49 in 10.0 mi SSE 10.4 mph - N/A   Overcast
8:40 AM 42.8 °F 37.5 °F 39.2 °F 87% 29.49 in 10.0 mi SSE 9.2 mph - N/A   Overcast
9:00 AM 42.8 °F 36.2 °F 39.2 °F 87% 29.48 in 10.0 mi SSE 12.7 mph 18.4 mph N/A   Overcast
9:20 AM 44.6 °F 38.4 °F 41.0 °F 87% 29.48 in 10.0 mi SSE 12.7 mph 18.4 mph N/A   Overcast
9:40 AM 44.6 °F 39.2 °F 41.0 °F 87% 29.48 in 10.0 mi SSE 10.4 mph 18.4 mph N/A   Overcast
10:00 AM 44.6 °F 38.1 °F 41.0 °F 87% 29.48 in 10.0 mi SSE 13.8 mph 21.9 mph N/A   Overcast
10:20 AM 44.6 °F 38.8 °F 41.0 °F 87% 29.48 in 7.0 mi SSE 11.5 mph 19.6 mph N/A   Overcast
10:40 AM 44.6 °F 39.7 °F 41.0 °F 87% 29.48 in 7.0 mi SSE 9.2 mph - N/A   Overcast
11:00 AM 44.6 °F 39.2 °F 41.0 °F 87% 29.48 in 7.0 mi SSE 10.4 mph - N/A   Overcast
11:20 AM 44.6 °F 41.4 °F 41.0 °F 87% 29.47 in 7.0 mi SSE 5.8 mph - N/A   Overcast
11:40 AM 44.6 °F 40.2 °F 42.8 °F 93% 29.46 in 5.0 mi SSE 8.1 mph - N/A   Overcast
12:01 PM 44.6 °F 42.2 °F 42.8 °F 93% 29.43 in 3.0 mi ESE 4.6 mph - N/A   Overcast
12:20 PM 44.6 °F 40.2 °F 42.8 °F 93% 29.43 in 2.0 mi SE 8.1 mph - N/A   Overcast
12:40 PM 44.6 °F 41.4 °F 42.8 °F 93% 29.42 in 1.2 mi SE 5.8 mph - N/A   Overcast
1:00 PM 42.8 °F 39.3 °F 42.8 °F 100% 29.40 in 1.0 mi SE 5.8 mph - N/A   Light Drizzle
1:20 PM 42.8 °F 38.6 °F 42.8 °F 100% 29.39 in 1.0 mi ESE 6.9 mph - N/A Thunderstorm Unknown
1:40 PM 44.6 °F 40.2 °F 42.8 °F 93% 29.37 in 1.2 mi East 8.1 mph - N/A   Light Drizzle
2:00 PM 42.8 °F 39.3 °F 42.8 °F 100% 29.36 in 1.5 mi ESE 5.8 mph - N/A Rain , Thunderstorm Light Thunderstorms and Rain
2:20 PM 42.8 °F 37.0 °F 42.8 °F 100% 29.36 in 1.8 mi ESE 10.4 mph - N/A Rain Rain
2:41 PM 42.8 °F 38.0 °F 42.8 °F 100% 29.34 in 3.0 mi ESE 8.1 mph - 0.02 in Rain Rain
3:00 PM 42.8 °F 38.6 °F 42.8 °F 100% 29.34 in 3.0 mi ESE 6.9 mph - N/A Rain Rain
3:20 PM 42.8 °F 38.6 °F 42.8 °F 100% 29.32 in 4.0 mi East 6.9 mph - 0.03 in Rain Light Rain
3:41 PM 42.8 °F 38.0 °F 42.8 °F 100% 29.32 in 4.0 mi East 8.1 mph - 0.03 in   Light Drizzle
4:00 PM 42.8 °F 38.6 °F 42.8 °F 100% 29.31 in 5.0 mi East 6.9 mph - N/A Rain Light Rain
4:20 PM 42.8 °F 39.3 °F 42.8 °F 100% 29.30 in 2.0 mi East 5.8 mph - N/A Rain Rain
4:41 PM 42.8 °F 38.6 °F 42.8 °F 100% 29.29 in 1.8 mi East 6.9 mph - 0.01 in   Drizzle
5:00 PM 42.8 °F 38.6 °F 42.8 °F 100% 29.28 in 4.0 mi East 6.9 mph - N/A Rain Heavy Rain
5:20 PM 42.8 °F 41.1 °F 42.8 °F 100% 29.28 in 7.0 mi East 3.5 mph - N/A   Overcast
5:41 PM 42.8 °F 40.1 °F 41.0 °F 93% 29.28 in 5.0 mi NE 4.6 mph - N/A Rain Light Rain
6:00 PM 42.8 °F 41.1 °F 42.8 °F 100% 29.28 in 5.0 mi NE 3.5 mph - N/A   Drizzle
6:20 PM 42.8 °F 40.1 °F 42.8 °F 100% 29.27 in 7.0 mi ENE 4.6 mph - N/A   Overcast
6:41 PM 42.8 °F 41.1 °F 42.8 °F 100% 29.27 in 7.0 mi NE 3.5 mph - N/A   Overcast
7:00 PM 42.8 °F 40.1 °F 42.8 °F 100% 29.27 in 5.0 mi NNE 4.6 mph - N/A   Overcast
7:20 PM 42.8 °F 40.1 °F 42.8 °F 100% 29.27 in 5.0 mi NNE 4.6 mph - N/A   Overcast
7:41 PM 42.8 °F 41.1 °F 42.8 °F 100% 29.27 in 3.0 mi NNE 3.5 mph - N/A   Overcast
8:00 PM 42.8 °F 41.1 °F 42.8 °F 100% 29.27 in 4.0 mi ENE 3.5 mph - N/A   Overcast
8:21 PM 42.8 °F - 42.8 °F 100% 29.26 in 3.0 mi Calm Calm - N/A   Overcast
8:40 PM 42.8 °F - 42.8 °F 100% 29.26 in 3.0 mi Calm Calm - N/A   Overcast
9:00 PM 42.8 °F - 42.8 °F 100% 29.27 in 2.5 mi Calm Calm - N/A   Overcast
9:21 PM 42.8 °F - 42.8 °F 100% 29.27 in 2.0 mi Calm Calm - N/A   Overcast
9:40 PM 42.8 °F - 42.8 °F 100% 29.27 in 2.0 mi Calm Calm - N/A   Overcast
10:00 PM 42.8 °F - 42.8 °F 100% 29.27 in 1.0 mi Calm Calm - N/A   Overcast
10:21 PM 42.8 °F - 42.8 °F 100% 29.27 in 0.5 mi Calm Calm - N/A Fog Fog
10:40 PM 42.8 °F - 42.8 °F 100% 29.27 in 0.5 mi Calm Calm - N/A   Light Drizzle
11:00 PM 42.8 °F - 42.8 °F 100% 29.27 in 0.5 mi Calm Calm - N/A   Light Drizzle
11:20 PM 41.0 °F - 41.0 °F 100% 29.28 in 0.5 mi Calm Calm - N/A Fog Fog
11:40 PM 41.0 °F - 41.0 °F 100% 29.27 in 0.5 mi Calm Calm - N/A Fog Fog